Time;durP1;ratioP1;P1;durP2;ratioP2;P2;SDS_P1;SDS_P2;PMS_P1;PMS_P2;Temp;Humidity;BMP_temperature;BMP_pressure;BME280_temperature;BME280_humidity;BME280_pressure;Samples;Min_cycle;Max_cycle;Signal;HPM_P1;HPM_P2
2023/07/24 00:03:30;;;;;;;5.30;3.60;;;;;;;;;;10556815;28;20027;-85
2023/07/24 00:08:31;;;;;;;6.63;3.97;;;;;;;;;;10564127;27;20077;-86
2023/07/24 00:13:32;;;;;;;5.25;3.80;;;;;;;;;;10541323;28;20076;-86
2023/07/24 00:18:33;;;;;;;7.22;4.15;;;;;;;;;;10536304;27;20040;-85
2023/07/24 00:23:34;;;;;;;8.38;4.68;;;;;;;;;;10526075;28;20107;-86
2023/07/24 00:28:35;;;;;;;7.18;4.43;;;;;;;;;;10525216;28;20027;-87
2023/07/24 00:33:36;;;;;;;6.78;3.95;;;;;;;;;;10527245;28;20036;-85
2023/07/24 00:38:37;;;;;;;9.32;4.47;;;;;;;;;;10525236;28;20400;-85
2023/07/24 00:43:39;;;;;;;8.35;4.85;;;;;;;;;;10525413;28;20070;-85
2023/07/24 00:48:40;;;;;;;6.75;4.40;;;;;;;;;;10512429;28;20032;-85
2023/07/24 00:53:41;;;;;;;9.07;5.28;;;;;;;;;;10510715;28;20785;-86
2023/07/24 00:58:42;;;;;;;10.35;5.60;;;;;;;;;;10519415;28;20041;-83
2023/07/24 01:03:43;;;;;;;14.98;8.75;;;;;;;;;;10510811;28;20038;-85
2023/07/24 01:08:44;;;;;;;21.08;13.77;;;;;;;;;;10518328;28;20028;-85
2023/07/24 01:13:52;;;;;;;17.92;11.65;;;;;;;;;;10516601;28;20046;-86
2023/07/24 01:18:54;;;;;;;21.05;11.40;;;;;;;;;;10511669;28;20089;-85
2023/07/24 01:24:14;;;;;;;20.63;13.05;;;;;;;;;;10520294;28;20038;-85
2023/07/24 01:29:15;;;;;;;20.80;13.85;;;;;;;;;;10524324;28;20452;-85
2023/07/24 01:34:16;;;;;;;20.52;12.68;;;;;;;;;;10515616;28;20075;-86
2023/07/24 01:39:18;;;;;;;18.75;10.85;;;;;;;;;;10523716;28;20563;-85
2023/07/24 01:44:19;;;;;;;13.77;8.75;;;;;;;;;;10513978;28;20028;-85
2023/07/24 01:49:20;;;;;;;12.05;7.65;;;;;;;;;;10524840;28;20055;-85
2023/07/24 01:54:21;;;;;;;11.65;6.25;;;;;;;;;;10524412;28;20034;-85
2023/07/24 01:59:22;;;;;;;10.13;6.38;;;;;;;;;;10524866;28;20403;-85
2023/07/24 02:04:23;;;;;;;9.77;6.13;;;;;;;;;;10529394;28;20050;-85
2023/07/24 02:09:24;;;;;;;9.82;5.63;;;;;;;;;;10519171;28;20039;-85
2023/07/24 02:14:26;;;;;;;10.35;5.63;;;;;;;;;;10505825;28;20427;-84
2023/07/24 02:19:27;;;;;;;10.32;5.78;;;;;;;;;;10530135;28;20036;-86
2023/07/24 02:24:28;;;;;;;9.98;5.47;;;;;;;;;;10530473;28;20028;-85
2023/07/24 02:29:29;;;;;;;9.85;5.85;;;;;;;;;;10529514;28;20671;-85
2023/07/24 02:34:30;;;;;;;9.25;5.82;;;;;;;;;;10519404;28;20020;-85
2023/07/24 02:39:31;;;;;;;10.55;5.53;;;;;;;;;;10530957;28;20069;-85
2023/07/24 02:44:33;;;;;;;9.25;5.82;;;;;;;;;;10522865;28;20036;-85
2023/07/24 02:49:34;;;;;;;11.77;6.00;;;;;;;;;;10528992;28;20121;-85
2023/07/24 02:54:35;;;;;;;10.38;6.65;;;;;;;;;;10530609;28;20059;-85
2023/07/24 02:59:36;;;;;;;10.20;6.85;;;;;;;;;;10530207;28;20330;-85
2023/07/24 03:04:37;;;;;;;12.13;7.40;;;;;;;;;;10543081;23;20114;-86
2023/07/24 03:09:38;;;;;;;10.57;6.25;;;;;;;;;;10529964;28;20835;-85
2023/07/24 03:14:39;;;;;;;10.63;6.13;;;;;;;;;;10527449;28;20059;-85
2023/07/24 03:19:41;;;;;;;9.10;5.95;;;;;;;;;;10531140;28;20044;-84
2023/07/24 03:24:42;;;;;;;9.23;5.65;;;;;;;;;;10529983;28;20047;-85
2023/07/24 03:29:43;;;;;;;7.90;5.15;;;;;;;;;;10529150;28;20038;-85
2023/07/24 03:34:44;;;;;;;7.90;5.30;;;;;;;;;;10529004;28;20024;-86
2023/07/24 03:39:45;;;;;;;10.13;5.90;;;;;;;;;;10528191;28;20047;-88
2023/07/24 03:44:46;;;;;;;8.88;5.68;;;;;;;;;;10507105;28;20088;-87
2023/07/24 03:49:47;;;;;;;9.88;5.20;;;;;;;;;;10529190;28;20043;-85
2023/07/24 03:54:48;;;;;;;8.18;5.50;;;;;;;;;;10527731;28;20036;-86
2023/07/24 03:59:49;;;;;;;10.18;5.25;;;;;;;;;;10512648;28;20051;-85
2023/07/24 04:04:50;;;;;;;8.05;5.20;;;;;;;;;;10510507;28;20036;-87
2023/07/24 04:09:51;;;;;;;9.48;5.38;;;;;;;;;;10526825;28;20032;-87
2023/07/24 04:14:52;;;;;;;9.07;5.82;;;;;;;;;;10526103;28;20403;-87
2023/07/24 04:19:55;;;;;;;9.55;5.50;;;;;;;;;;10526391;28;20040;-91
2023/07/24 04:24:56;;;;;;;9.70;5.90;;;;;;;;;;10527497;28;20138;-89
2023/07/24 04:29:57;;;;;;;10.57;6.30;;;;;;;;;;10533763;28;20613;-89
2023/07/24 04:34:58;;;;;;;9.80;6.93;;;;;;;;;;10519079;28;20040;-88
2023/07/24 04:39:59;;;;;;;10.80;7.60;;;;;;;;;;10557406;28;20051;-87
2023/07/24 04:45:00;;;;;;;11.43;6.63;;;;;;;;;;10569225;28;20487;-86
2023/07/24 04:50:01;;;;;;;11.73;6.88;;;;;;;;;;10567778;28;20015;-87
2023/07/24 04:55:02;;;;;;;11.88;5.45;;;;;;;;;;10568763;28;20692;-85
2023/07/24 05:00:04;;;;;;;10.70;5.65;;;;;;;;;;10555771;28;20046;-85
2023/07/24 05:05:05;;;;;;;8.10;5.40;;;;;;;;;;10568541;28;20102;-87
2023/07/24 05:10:06;;;;;;;8.77;5.20;;;;;;;;;;10568139;28;20028;-87
2023/07/24 05:15:08;;;;;;;11.98;5.60;;;;;;;;;;10567614;28;20512;-86
2023/07/24 05:20:09;;;;;;;11.57;5.95;;;;;;;;;;10568431;28;20626;-86
2023/07/24 05:25:10;;;;;;;8.25;5.47;;;;;;;;;;10566475;28;20039;-87
2023/07/24 05:30:11;;;;;;;8.98;5.53;;;;;;;;;;10568717;28;20032;-85
2023/07/24 05:35:12;;;;;;;8.90;6.13;;;;;;;;;;10568454;28;20024;-87
2023/07/24 05:40:13;;;;;;;9.77;5.82;;;;;;;;;;10574879;28;20039;-87
2023/07/24 05:45:17;;;;;;;9.60;5.72;;;;;;;;;;10576781;28;20038;-86
2023/07/24 05:50:18;;;;;;;11.70;5.80;;;;;;;;;;10576184;28;20019;-87
2023/07/24 05:55:19;;;;;;;10.13;4.90;;;;;;;;;;10574453;28;20471;-88
2023/07/24 06:00:20;;;;;;;8.75;5.22;;;;;;;;;;10576259;28;20085;-87
2023/07/24 06:05:21;;;;;;;7.43;4.95;;;;;;;;;;10575834;27;20464;-87
2023/07/24 06:10:22;;;;;;;11.27;5.03;;;;;;;;;;10575603;28;20034;-87
2023/07/24 06:15:23;;;;;;;9.00;6.40;;;;;;;;;;10575994;28;20050;-86
2023/07/24 06:20:24;;;;;;;10.48;5.57;;;;;;;;;;10573850;28;20046;-85
2023/07/24 06:25:25;;;;;;;11.20;6.32;;;;;;;;;;10574789;28;20524;-88
2023/07/24 06:30:26;;;;;;;7.72;5.07;;;;;;;;;;10574578;28;20391;-86
2023/07/24 06:35:27;;;;;;;8.63;5.18;;;;;;;;;;10574425;27;20027;-85
2023/07/24 06:40:28;;;;;;;8.77;4.68;;;;;;;;;;10572304;28;20521;-87
2023/07/24 06:45:29;;;;;;;8.73;5.15;;;;;;;;;;10572936;28;20032;-87
2023/07/24 06:50:30;;;;;;;10.57;5.20;;;;;;;;;;10573849;28;20045;-87
2023/07/24 06:55:31;;;;;;;9.65;5.07;;;;;;;;;;10573520;28;20023;-86
2023/07/24 07:00:32;;;;;;;11.32;5.03;;;;;;;;;;10573333;28;20483;-87
2023/07/24 07:05:33;;;;;;;7.13;4.53;;;;;;;;;;10572926;28;20060;-87
2023/07/24 07:10:34;;;;;;;10.68;5.18;;;;;;;;;;10571234;28;20447;-86
2023/07/24 07:15:36;;;;;;;6.53;4.70;;;;;;;;;;10571415;28;20501;-88
2023/07/24 07:20:37;;;;;;;7.43;4.63;;;;;;;;;;10571575;28;20031;-86
2023/07/24 07:25:38;;;;;;;7.10;4.53;;;;;;;;;;10572012;28;20027;-88
2023/07/24 07:30:39;;;;;;;7.25;4.40;;;;;;;;;;10550078;28;20035;-87
2023/07/24 07:35:40;;;;;;;6.85;4.78;;;;;;;;;;10560999;28;20057;-88
2023/07/24 07:40:41;;;;;;;5.72;4.25;;;;;;;;;;10570434;28;20114;-89
2023/07/24 07:45:42;;;;;;;6.78;4.40;;;;;;;;;;10571606;28;20032;-87
2023/07/24 07:50:43;;;;;;;9.80;4.75;;;;;;;;;;10571742;28;20118;-85
2023/07/24 07:55:44;;;;;;;6.55;4.57;;;;;;;;;;10571078;28;20395;-87
2023/07/24 08:00:45;;;;;;;8.20;4.53;;;;;;;;;;10569833;28;20023;-87
2023/07/24 08:05:46;;;;;;;6.13;4.55;;;;;;;;;;10570625;28;20055;-88
2023/07/24 08:10:47;;;;;;;7.53;4.65;;;;;;;;;;10569898;28;20034;-86
2023/07/24 08:15:50;;;;;;;9.40;4.55;;;;;;;;;;10570312;27;20024;-86
2023/07/24 08:20:51;;;;;;;8.77;5.03;;;;;;;;;;10569016;28;20123;-87
2023/07/24 08:25:53;;;;;;;6.60;4.55;;;;;;;;;;10569335;28;20028;-87
2023/07/24 08:30:57;;;;;;;7.88;5.20;;;;;;;;;;10568478;28;20505;-86
2023/07/24 08:35:58;;;;;;;;;;;;;;;;;;10570464;28;20039;-86
2023/07/24 08:41:02;;;;;;;8.98;5.03;;;;;;;;;;10569375;28;19923;-87
2023/07/24 08:46:04;;;;;;;9.43;5.05;;;;;;;;;;10570495;28;20491;-86
2023/07/24 08:51:24;;;;;;;9.95;5.45;;;;;;;;;;10568096;28;20024;-87
2023/07/24 08:56:25;;;;;;;8.48;5.25;;;;;;;;;;10569454;28;20390;-86
2023/07/24 09:01:26;;;;;;;9.15;5.60;;;;;;;;;;10567692;28;20020;-86
2023/07/24 09:06:27;;;;;;;9.38;6.03;;;;;;;;;;10567270;28;20105;-87
2023/07/24 09:11:28;;;;;;;7.22;4.70;;;;;;;;;;10571628;28;20666;-86
2023/07/24 09:16:29;;;;;;;8.07;4.50;;;;;;;;;;10577416;27;20039;-86
2023/07/24 09:21:31;;;;;;;9.20;5.20;;;;;;;;;;10576312;28;20085;-87
2023/07/24 09:26:32;;;;;;;8.13;4.85;;;;;;;;;;10563331;28;20039;-87
2023/07/24 09:31:36;;;;;;;8.93;5.50;;;;;;;;;;10575464;28;20035;-87
2023/07/24 09:36:38;;;;;;;8.10;5.18;;;;;;;;;;10576391;28;20110;-87
2023/07/24 09:41:40;;;;;;;7.05;5.05;;;;;;;;;;10576544;28;20035;-87
2023/07/24 09:46:43;;;;;;;9.40;5.55;;;;;;;;;;10575738;28;20023;-88
2023/07/24 09:51:46;;;;;;;8.63;5.28;;;;;;;;;;10577304;28;20030;-85
2023/07/24 09:56:48;;;;;;;9.98;5.47;;;;;;;;;;10574418;28;20027;-88
2023/07/24 10:01:49;;;;;;;8.98;5.75;;;;;;;;;;10575843;27;20501;-87
2023/07/24 10:06:51;;;;;;;10.60;6.07;;;;;;;;;;10575164;28;20057;-88
2023/07/24 10:11:52;;;;;;;10.48;5.45;;;;;;;;;;10574868;28;20033;-87
2023/07/24 10:16:55;;;;;;;8.13;5.88;;;;;;;;;;10562673;28;20080;-88
2023/07/24 10:21:56;;;;;;;7.82;5.43;;;;;;;;;;10561452;28;20066;-87
2023/07/24 10:26:57;;;;;;;9.55;6.07;;;;;;;;;;10574177;28;20110;-87
2023/07/24 10:31:58;;;;;;;7.82;5.65;;;;;;;;;;10571511;28;20099;-87
2023/07/24 10:37:03;;;;;;;11.52;6.18;;;;;;;;;;10564487;28;20031;-87
2023/07/24 10:42:08;;;;;;;9.27;5.88;;;;;;;;;;10574181;28;20103;-87
2023/07/24 10:47:09;;;;;;;9.65;6.05;;;;;;;;;;10573879;28;20032;-87
2023/07/24 10:52:10;;;;;;;10.88;6.30;;;;;;;;;;10573938;28;20475;-86
2023/07/24 10:57:11;;;;;;;9.15;6.22;;;;;;;;;;10572584;28;20027;-87
2023/07/24 11:02:13;;;;;;;9.43;6.18;;;;;;;;;;10573141;28;20035;-88
2023/07/24 11:07:14;;;;;;;10.00;6.40;;;;;;;;;;10573318;28;20052;-87
2023/07/24 11:12:16;;;;;;;12.13;6.70;;;;;;;;;;10559402;28;20027;-87
2023/07/24 11:17:18;;;;;;;10.18;6.03;;;;;;;;;;10572830;28;20055;-87
2023/07/24 11:22:23;;;;;;;10.77;6.85;;;;;;;;;;10570810;28;20032;-87
2023/07/24 11:27:25;;;;;;;10.82;6.50;;;;;;;;;;10572791;28;20058;-87
2023/07/24 11:32:26;;;;;;;10.98;6.28;;;;;;;;;;10570739;28;20020;-86
2023/07/24 11:37:27;;;;;;;11.73;6.88;;;;;;;;;;10570969;28;20031;-87
2023/07/24 11:42:28;;;;;;;9.68;5.70;;;;;;;;;;10572331;28;20035;-87
2023/07/24 11:47:29;;;;;;;11.70;6.07;;;;;;;;;;10570541;28;20035;-87
2023/07/24 11:52:43;;;;;;;11.13;6.38;;;;;;;;;;10572494;28;20443;-87
2023/07/24 11:57:44;;;;;;;9.00;6.10;;;;;;;;;;10532403;28;20192;-88
2023/07/24 12:02:45;;;;;;;9.68;5.97;;;;;;;;;;10570953;28;20027;-87
2023/07/24 12:07:46;;;;;;;9.52;6.50;;;;;;;;;;10571882;28;20719;-87
2023/07/24 12:12:47;;;;;;;9.65;6.22;;;;;;;;;;10570723;28;20019;-87
2023/07/24 12:17:48;;;;;;;11.32;6.13;;;;;;;;;;10570617;28;20034;-87
2023/07/24 12:22:49;;;;;;;8.50;6.07;;;;;;;;;;10536341;28;20028;-86
2023/07/24 12:27:50;;;;;;;9.68;6.38;;;;;;;;;;10569935;28;20023;-87
2023/07/24 12:32:51;;;;;;;8.95;6.43;;;;;;;;;;10565890;28;20035;-88
2023/07/24 12:37:52;;;;;;;10.25;6.47;;;;;;;;;;10546287;28;20054;-87
2023/07/24 12:42:53;;;;;;;9.50;6.50;;;;;;;;;;10527169;28;20040;-86
2023/07/24 12:47:55;;;;;;;9.45;5.80;;;;;;;;;;10526266;28;20652;-87
2023/07/24 12:52:56;;;;;;;9.93;6.30;;;;;;;;;;10527182;28;20054;-86
2023/07/24 12:57:57;;;;;;;8.02;5.72;;;;;;;;;;10525279;28;20142;-87
2023/07/24 13:02:58;;;;;;;10.38;6.95;;;;;;;;;;10526654;28;20116;-86
2023/07/24 13:07:59;;;;;;;10.77;7.15;;;;;;;;;;10526476;28;20600;-85
2023/07/24 13:13:01;;;;;;;10.85;6.85;;;;;;;;;;10525870;28;20037;-87
2023/07/24 13:18:02;;;;;;;11.13;6.57;;;;;;;;;;10526213;28;20123;-86
2023/07/24 13:23:03;;;;;;;9.98;6.50;;;;;;;;;;10524995;28;20081;-86
2023/07/24 13:28:04;;;;;;;9.88;6.70;;;;;;;;;;10524745;28;20093;-86
2023/07/24 13:33:05;;;;;;;10.73;6.30;;;;;;;;;;10526507;28;20172;-86
2023/07/24 13:38:08;;;;;;;11.75;7.25;;;;;;;;;;10525951;28;20512;-87
2023/07/24 13:43:09;;;;;;;10.50;7.35;;;;;;;;;;10530320;28;20528;-86
2023/07/24 13:48:10;;;;;;;10.95;7.20;;;;;;;;;;10528733;28;20012;-88
2023/07/24 13:53:12;;;;;;;12.13;7.57;;;;;;;;;;10526661;28;20636;-85
2023/07/24 13:58:12;;;;;;;11.88;7.35;;;;;;;;;;10525868;28;20040;-86
2023/07/24 14:03:14;;;;;;;14.82;6.95;;;;;;;;;;10540926;28;20035;-84
2023/07/24 14:08:15;;;;;;;9.68;6.95;;;;;;;;;;10576297;28;20423;-88
2023/07/24 14:13:16;;;;;;;12.20;7.50;;;;;;;;;;10557692;28;20030;-86
2023/07/24 14:18:17;;;;;;;10.05;6.80;;;;;;;;;;10553966;28;20675;-84
2023/07/24 14:23:17;;;;;;;11.75;7.72;;;;;;;;;;10535352;28;20028;-87
2023/07/24 14:28:18;;;;;;;10.43;6.57;;;;;;;;;;10535037;28;20032;-87
2023/07/24 14:33:19;;;;;;;10.82;7.78;;;;;;;;;;10544383;28;20040;-85
2023/07/24 14:38:21;;;;;;;11.10;8.10;;;;;;;;;;10534304;28;20041;-84
2023/07/24 14:43:23;;;;;;;24.38;21.88;;;;;;;;;;10537096;28;20066;-86
2023/07/24 14:48:24;;;;;;;11.68;8.60;;;;;;;;;;10559385;28;20078;-85
2023/07/24 14:53:25;;;;;;;11.77;7.93;;;;;;;;;;10534635;28;20038;-84
2023/07/24 14:58:26;;;;;;;13.25;7.90;;;;;;;;;;10546585;28;20462;-84
2023/07/24 15:03:27;;;;;;;11.60;7.43;;;;;;;;;;10534552;28;20039;-86
2023/07/24 15:08:27;;;;;;;12.02;7.38;;;;;;;;;;10568373;28;20108;-86
2023/07/24 15:13:29;;;;;;;13.95;8.68;;;;;;;;;;10532499;28;20104;-85
2023/07/24 15:18:30;;;;;;;12.82;8.25;;;;;;;;;;10543848;28;20067;-84
2023/07/24 15:23:31;;;;;;;12.77;8.05;;;;;;;;;;10531656;28;20036;-87
2023/07/24 15:28:32;;;;;;;15.02;8.57;;;;;;;;;;10528015;28;20107;-86
2023/07/24 15:33:32;;;;;;;9.43;6.13;;;;;;;;;;10537636;28;20050;-84
2023/07/24 15:38:34;;;;;;;19.38;7.55;;;;;;;;;;10544608;28;20466;-87
2023/07/24 15:43:35;;;;;;;15.93;7.20;;;;;;;;;;10546966;28;20104;-85
2023/07/24 15:48:35;;;;;;;10.77;6.60;;;;;;;;;;10536614;28;20024;-86
2023/07/24 15:53:36;;;;;;;14.60;8.07;;;;;;;;;;10558908;27;20057;-85
2023/07/24 15:58:38;;;;;;;13.95;7.72;;;;;;;;;;10562572;28;20096;-84
2023/07/24 16:03:39;;;;;;;14.38;7.50;;;;;;;;;;10556043;28;20042;-86
2023/07/24 16:08:40;;;;;;;11.77;7.43;;;;;;;;;;10532669;28;20509;-87
2023/07/24 16:13:41;;;;;;;11.32;7.43;;;;;;;;;;10561276;28;20078;-86
2023/07/24 16:18:42;;;;;;;11.38;7.00;;;;;;;;;;10524961;28;20036;-86
2023/07/24 16:23:43;;;;;;;11.32;6.97;;;;;;;;;;10541786;28;20111;-86
2023/07/24 16:28:44;;;;;;;9.85;6.05;;;;;;;;;;10545107;28;20024;-86
2023/07/24 16:33:45;;;;;;;12.40;6.95;;;;;;;;;;10550311;28;20039;-87
2023/07/24 16:38:46;;;;;;;13.48;6.57;;;;;;;;;;10558419;28;20486;-86
2023/07/24 16:43:47;;;;;;;13.90;7.88;;;;;;;;;;10532856;28;20032;-86
2023/07/24 16:48:49;;;;;;;10.43;7.07;;;;;;;;;;10523276;28;20036;-88
2023/07/24 16:53:50;;;;;;;14.60;7.70;;;;;;;;;;10549661;28;20035;-88
2023/07/24 16:58:51;;;;;;;10.65;6.43;;;;;;;;;;10568744;28;20043;-87
2023/07/24 17:03:51;;;;;;;16.38;8.90;;;;;;;;;;10555396;28;20046;-84
2023/07/24 17:08:53;;;;;;;16.42;9.82;;;;;;;;;;10555546;28;20055;-87
2023/07/24 17:13:54;;;;;;;12.57;8.40;;;;;;;;;;10540172;28;20044;-88
2023/07/24 17:18:56;;;;;;;14.65;7.90;;;;;;;;;;10530404;28;20040;-86
2023/07/24 17:23:57;;;;;;;13.55;7.30;;;;;;;;;;10521538;28;20035;-86
2023/07/24 17:29:01;;;;;;;15.25;9.55;;;;;;;;;;10525504;28;20114;-85
2023/07/24 17:34:03;;;;;;;15.93;9.27;;;;;;;;;;10527655;28;20032;-85
2023/07/24 17:39:04;;;;;;;16.63;9.30;;;;;;;;;;10531758;28;20047;-86
2023/07/24 17:44:05;;;;;;;14.27;8.15;;;;;;;;;;10534627;28;20097;-85
2023/07/24 17:49:06;;;;;;;16.60;8.85;;;;;;;;;;10532495;28;20024;-85
2023/07/24 17:54:07;;;;;;;14.32;8.93;;;;;;;;;;10532599;28;20032;-85
2023/07/24 17:59:08;;;;;;;14.95;9.32;;;;;;;;;;10533126;28;20066;-85
2023/07/24 18:04:09;;;;;;;18.15;9.40;;;;;;;;;;10533341;28;20039;-86
2023/07/24 18:09:10;;;;;;;14.82;8.15;;;;;;;;;;10533434;28;20102;-85
2023/07/24 18:14:11;;;;;;;12.35;7.97;;;;;;;;;;10533293;28;20118;-86
2023/07/24 18:19:12;;;;;;;15.00;8.63;;;;;;;;;;10532173;28;20032;-85
2023/07/24 18:24:13;;;;;;;14.18;8.38;;;;;;;;;;10528275;28;20050;-84
2023/07/24 18:29:15;;;;;;;14.57;8.90;;;;;;;;;;10532630;28;20698;-87
2023/07/24 18:34:16;;;;;;;13.95;8.88;;;;;;;;;;10532017;28;20027;-85
2023/07/24 18:39:17;;;;;;;16.25;9.85;;;;;;;;;;10541241;28;20040;-85
2023/07/24 18:44:18;;;;;;;17.35;10.80;;;;;;;;;;10559776;28;20036;-85
2023/07/24 18:49:19;;;;;;;16.27;9.82;;;;;;;;;;10574140;28;20020;-85
2023/07/24 18:54:23;;;;;;;15.57;10.40;;;;;;;;;;10573836;28;20024;-85
2023/07/24 18:59:24;;;;;;;20.38;10.75;;;;;;;;;;10573607;28;20120;-85
2023/07/24 19:04:25;;;;;;;18.00;11.10;;;;;;;;;;10573000;28;20026;-84
2023/07/24 19:09:26;;;;;;;17.77;10.93;;;;;;;;;;10572593;28;20165;-85
2023/07/24 19:14:27;;;;;;;18.60;10.55;;;;;;;;;;10571650;28;20053;-85
2023/07/24 19:19:28;;;;;;;16.13;10.80;;;;;;;;;;10572001;28;20046;-85
2023/07/24 19:24:29;;;;;;;18.63;10.30;;;;;;;;;;10548877;28;20030;-85
2023/07/24 19:29:30;;;;;;;16.67;10.77;;;;;;;;;;10567169;28;20028;-85
2023/07/24 19:34:31;;;;;;;17.25;10.57;;;;;;;;;;10537474;28;20028;-84
2023/07/24 19:39:32;;;;;;;20.35;11.98;;;;;;;;;;10545234;28;20036;-84
2023/07/24 19:44:33;;;;;;;18.42;12.55;;;;;;;;;;10527409;28;20035;-87
2023/07/24 19:49:38;;;;;;;31.33;17.58;;;;;;;;;;10517567;28;20415;-85
2023/07/24 19:54:39;;;;;;;;;;;;;;;;;;10525903;28;20032;-84
2023/07/24 19:59:40;;;;;;;22.30;14.10;;;;;;;;;;10537834;28;19931;-85
2023/07/24 20:04:41;;;;;;;21.15;14.23;;;;;;;;;;10544929;28;20038;-84
2023/07/24 20:09:42;;;;;;;22.58;14.30;;;;;;;;;;10571863;28;20525;-85
2023/07/24 20:14:44;;;;;;;21.15;12.73;;;;;;;;;;10549048;28;20028;-84
2023/07/24 20:19:45;;;;;;;15.80;11.30;;;;;;;;;;10541549;28;20167;-85
2023/07/24 20:24:46;;;;;;;18.83;11.38;;;;;;;;;;10569670;22;20060;-84
2023/07/24 20:29:47;;;;;;;15.07;9.25;;;;;;;;;;10562631;28;20024;-85
2023/07/24 20:34:48;;;;;;;15.48;9.30;;;;;;;;;;10556881;28;20035;-85
2023/07/24 20:39:49;;;;;;;12.73;8.07;;;;;;;;;;10556429;28;20051;-85
2023/07/24 20:44:53;;;;;;;13.57;8.48;;;;;;;;;;10557548;28;20050;-84
2023/07/24 20:49:55;;;;;;;14.30;8.97;;;;;;;;;;10559322;28;20500;-85
2023/07/24 20:54:56;;;;;;;15.77;8.95;;;;;;;;;;10564800;28;20502;-85
2023/07/24 20:59:57;;;;;;;13.30;7.22;;;;;;;;;;10551948;28;20038;-85
2023/07/24 21:04:58;;;;;;;11.35;7.75;;;;;;;;;;10563129;28;20078;-86
2023/07/24 21:09:59;;;;;;;11.15;7.75;;;;;;;;;;10567428;28;20144;-84
2023/07/24 21:15:00;;;;;;;12.20;7.53;;;;;;;;;;10565607;28;20167;-85
2023/07/24 21:20:03;;;;;;;12.30;7.20;;;;;;;;;;10563505;28;20047;-84
2023/07/24 21:25:04;;;;;;;10.15;6.47;;;;;;;;;;10555572;28;20067;-85
2023/07/24 21:30:06;;;;;;;10.05;6.68;;;;;;;;;;10556685;28;20023;-85
2023/07/24 21:35:09;;;;;;;12.48;7.55;;;;;;;;;;10530478;28;20118;-85
2023/07/24 21:40:10;;;;;;;11.30;6.25;;;;;;;;;;10568031;28;20028;-85
2023/07/24 21:45:11;;;;;;;9.13;6.20;;;;;;;;;;10560623;28;20549;-85
2023/07/24 21:50:12;;;;;;;11.27;6.90;;;;;;;;;;10558715;28;20035;-85
2023/07/24 21:55:13;;;;;;;11.90;6.63;;;;;;;;;;10568590;28;20028;-85
2023/07/24 22:00:14;;;;;;;9.45;5.65;;;;;;;;;;10551088;28;20542;-85
2023/07/24 22:05:15;;;;;;;8.57;5.80;;;;;;;;;;10554623;28;20028;-85
2023/07/24 22:10:16;;;;;;;9.07;5.43;;;;;;;;;;10565221;28;20031;-85
2023/07/24 22:15:17;;;;;;;9.50;5.53;;;;;;;;;;10554909;28;20040;-84
2023/07/24 22:20:18;;;;;;;8.65;5.32;;;;;;;;;;10556350;28;20048;-85
2023/07/24 22:25:20;;;;;;;8.20;5.03;;;;;;;;;;10548014;28;20112;-85
2023/07/24 22:30:21;;;;;;;8.88;5.65;;;;;;;;;;10559601;28;20051;-84
2023/07/24 22:35:22;;;;;;;12.73;5.93;;;;;;;;;;10556105;28;20441;-85
2023/07/24 22:40:23;;;;;;;7.97;6.15;;;;;;;;;;10572798;28;20035;-85
2023/07/24 22:45:27;;;;;;;9.60;5.93;;;;;;;;;;10557779;28;20030;-85
2023/07/24 22:50:28;;;;;;;10.87;6.50;;;;;;;;;;10564093;28;20581;-84
2023/07/24 22:55:29;;;;;;;12.70;7.10;;;;;;;;;;10563034;28;20034;-85
2023/07/24 23:00:30;;;;;;;12.25;6.60;;;;;;;;;;10556612;28;20093;-85
2023/07/24 23:05:31;;;;;;;9.85;6.50;;;;;;;;;;10560203;28;20613;-85
2023/07/24 23:10:32;;;;;;;12.35;6.95;;;;;;;;;;10572804;28;20065;-85
2023/07/24 23:15:33;;;;;;;12.13;7.57;;;;;;;;;;10562378;28;20028;-85
2023/07/24 23:20:34;;;;;;;11.02;6.63;;;;;;;;;;10556232;28;20057;-85
2023/07/24 23:25:35;;;;;;;9.65;6.78;;;;;;;;;;10541878;28;20056;-87
2023/07/24 23:30:42;;;;;;;9.93;7.25;;;;;;;;;;10550246;28;20088;-84
2023/07/24 23:35:43;;;;;;;12.88;8.40;;;;;;;;;;10560179;28;20035;-84
2023/07/24 23:40:44;;;;;;;11.13;7.90;;;;;;;;;;10565424;28;20051;-84
2023/07/24 23:45:45;;;;;;;10.48;7.68;;;;;;;;;;10524180;28;20391;-84
2023/07/24 23:50:46;;;;;;;10.88;7.30;;;;;;;;;;10570778;28;20023;-84
2023/07/24 23:55:47;;;;;;;11.30;7.28;;;;;;;;;;10570992;28;20023;-85
